Time,TemperatureF,DewpointF,PressureIn,WindDirection,WindDirectionDegrees,WindSpeedMPH,WindSpeedGustMPH,Humidity,HourlyPrecipIn,Conditions,Clouds,dailyrainin,SolarRadiationWatts/m^2,SoftwareType,DateUTC
2013-10-11 00:05:00,52.3,50.0,30.01,SE,133,3.0,6.0,91,0.00,,,0.00,0,weatherlink.com 1.10,2013-10-11 07:05:00,
2013-10-11 00:20:00,52.1,50.0,30.01,SSE,165,3.0,6.0,91,0.00,,,0.00,0,weatherlink.com 1.10,2013-10-11 07:20:00,
2013-10-11 00:35:00,52.0,50.0,30.01,SSE,147,1.0,6.0,91,0.00,,,0.00,0,weatherlink.com 1.10,2013-10-11 07:35:00,
2013-10-11 00:50:00,52.0,50.0,30.01,SSE,155,2.0,4.0,92,0.00,,,0.00,0,weatherlink.com 1.10,2013-10-11 07:50:00,
2013-10-11 01:05:00,51.9,50.0,30.01,SSW,201,4.0,6.0,92,0.00,,,0.00,0,weatherlink.com 1.10,2013-10-11 08:05:00,
2013-10-11 01:20:00,51.8,50.0,30.01,ESE,115,2.0,8.0,92,0.00,,,0.00,0,weatherlink.com 1.10,2013-10-11 08:20:00,
2013-10-11 01:35:00,51.8,50.0,30.02,SSE,155,0.0,5.0,92,0.00,,,0.00,0,weatherlink.com 1.10,2013-10-11 08:35:00,
2013-10-11 01:50:00,51.8,50.0,30.01,SSE,163,2.0,8.0,92,0.00,,,0.00,0,weatherlink.com 1.10,2013-10-11 08:50:00,
2013-10-11 02:05:00,51.8,50.0,30.02,SSE,153,3.0,5.0,92,0.00,,,0.00,0,weatherlink.com 1.10,2013-10-11 09:05:00,
2013-10-11 02:20:00,51.8,50.0,30.02,SSW,212,0.0,5.0,92,0.00,,,0.00,0,weatherlink.com 1.10,2013-10-11 09:20:00,
2013-10-11 02:35:00,51.8,50.0,30.02,SSE,165,3.0,5.0,92,0.00,,,0.00,0,weatherlink.com 1.10,2013-10-11 09:35:00,
2013-10-11 02:50:00,51.9,50.0,30.02,South,187,1.0,4.0,92,0.00,,,0.00,0,weatherlink.com 1.10,2013-10-11 09:50:00,
2013-10-11 03:05:00,52.0,50.0,30.02,SE,144,2.0,5.0,92,0.00,,,0.00,0,weatherlink.com 1.10,2013-10-11 10:05:00,
2013-10-11 03:20:00,52.1,50.0,30.02,SSE,163,2.0,5.0,91,0.00,,,0.00,0,weatherlink.com 1.10,2013-10-11 10:20:00,
2013-10-11 03:35:00,52.2,50.0,30.02,SSW,194,2.0,6.0,92,0.00,,,0.00,0,weatherlink.com 1.10,2013-10-11 10:35:00,
2013-10-11 03:50:00,52.2,50.0,30.02,SSE,153,1.0,5.0,91,0.00,,,0.00,0,weatherlink.com 1.10,2013-10-11 10:50:00,
2013-10-11 04:05:00,52.2,50.0,30.02,SSE,153,1.0,4.0,91,0.00,,,0.00,0,weatherlink.com 1.10,2013-10-11 11:05:00,
2013-10-11 04:20:00,52.2,50.0,30.03,SSE,167,2.0,5.0,91,0.00,,,0.00,0,weatherlink.com 1.10,2013-10-11 11:20:00,
2013-10-11 04:35:00,52.2,50.0,30.03,SSW,211,0.0,5.0,91,0.00,,,0.00,0,weatherlink.com 1.10,2013-10-11 11:35:00,
2013-10-11 04:50:00,52.2,50.0,30.03,WSW,242,1.0,5.0,91,0.00,,,0.00,0,weatherlink.com 1.10,2013-10-11 11:50:00,
2013-10-11 05:05:00,52.2,50.0,30.03,SSW,213,2.0,5.0,91,0.00,,,0.00,0,weatherlink.com 1.10,2013-10-11 12:05:00,
2013-10-11 05:20:00,52.2,50.0,30.04,SSW,202,1.0,5.0,91,0.00,,,0.00,0,weatherlink.com 1.10,2013-10-11 12:20:00,
2013-10-11 05:35:00,52.1,50.0,30.04,SW,215,0.0,4.0,91,0.00,,,0.00,0,weatherlink.com 1.10,2013-10-11 12:35:00,
2013-10-11 05:50:00,52.0,50.0,30.04,SSW,194,0.0,5.0,91,0.00,,,0.00,0,weatherlink.com 1.10,2013-10-11 12:50:00,
2013-10-11 06:05:00,51.9,49.0,30.05,SSW,213,1.0,3.0,91,0.00,,,0.00,0,weatherlink.com 1.10,2013-10-11 13:05:00,
2013-10-11 06:20:00,51.7,49.0,30.05,SW,227,2.0,4.0,91,0.00,,,0.00,0,weatherlink.com 1.10,2013-10-11 13:20:00,
2013-10-11 06:35:00,51.6,49.0,30.05,SSW,211,2.0,4.0,90,0.00,,,0.00,0,weatherlink.com 1.10,2013-10-11 13:35:00,
2013-10-11 06:50:00,51.5,49.0,30.05,South,190,1.0,2.0,91,0.00,,,0.00,0,weatherlink.com 1.10,2013-10-11 13:50:00,
2013-10-11 07:05:00,51.5,49.0,30.05,SW,219,2.0,4.0,90,0.00,,,0.00,0,weatherlink.com 1.10,2013-10-11 14:05:00,
2013-10-11 07:20:00,51.3,49.0,30.05,SSW,207,3.0,4.0,90,0.00,,,0.00,0,weatherlink.com 1.10,2013-10-11 14:20:00,
2013-10-11 07:35:00,51.3,49.0,30.06,SSW,205,1.0,3.0,90,0.00,,,0.00,9,weatherlink.com 1.10,2013-10-11 14:35:00,
2013-10-11 07:50:00,51.3,48.0,30.07,South,191,0.0,4.0,89,0.00,,,0.00,19,weatherlink.com 1.10,2013-10-11 14:50:00,
2013-10-11 08:06:00,51.4,48.0,30.07,SSW,206,1.0,1.0,89,0.00,,,0.00,32,weatherlink.com 1.10,2013-10-11 15:06:00,
2013-10-11 08:21:00,51.6,49.0,30.07,SW,215,0.0,2.0,89,0.00,,,0.00,49,weatherlink.com 1.10,2013-10-11 15:21:00,
2013-10-11 08:36:00,51.9,49.0,30.07,SW,215,0.0,1.0,88,0.00,,,0.00,69,weatherlink.com 1.10,2013-10-11 15:36:00,
2013-10-11 08:51:00,52.3,49.0,30.08,SSW,207,0.0,4.0,87,0.00,,,0.00,86,weatherlink.com 1.10,2013-10-11 15:51:00,
2013-10-11 09:06:00,52.6,49.0,30.08,SW,218,0.0,4.0,87,0.00,,,0.00,116,weatherlink.com 1.10,2013-10-11 16:06:00,
2013-10-11 09:21:00,53.0,49.0,30.08,SSW,212,0.0,3.0,86,0.00,,,0.00,135,weatherlink.com 1.10,2013-10-11 16:21:00,
2013-10-11 09:36:00,53.3,49.0,30.08,South,169,0.0,3.0,86,0.00,,,0.00,172,weatherlink.com 1.10,2013-10-11 16:36:00,
2013-10-11 09:51:00,53.5,49.0,30.09,South,188,0.0,4.0,84,0.00,,,0.00,241,weatherlink.com 1.10,2013-10-11 16:51:00,
2013-10-11 10:06:00,53.7,49.0,30.09,SSW,205,0.0,3.0,85,0.00,,,0.00,125,weatherlink.com 1.10,2013-10-11 17:06:00,
2013-10-11 10:21:00,54.1,50.0,30.08,SSW,208,0.0,3.0,85,0.00,,,0.00,162,weatherlink.com 1.10,2013-10-11 17:21:00,
2013-10-11 10:36:00,54.3,50.0,30.09,SSW,202,0.0,2.0,84,0.00,,,0.00,223,weatherlink.com 1.10,2013-10-11 17:36:00,
2013-10-11 10:51:00,54.7,50.0,30.08,South,178,0.0,2.0,83,0.00,,,0.00,257,weatherlink.com 1.10,2013-10-11 17:51:00,
2013-10-11 11:06:00,55.4,50.0,30.08,SW,233,0.0,3.0,83,0.00,,,0.00,343,weatherlink.com 1.10,2013-10-11 18:06:00,
2013-10-11 11:21:00,56.7,51.0,30.08,SW,234,0.0,3.0,80,0.00,,,0.00,362,weatherlink.com 1.10,2013-10-11 18:21:00,
2013-10-11 11:36:00,56.8,50.0,30.08,SSW,195,0.0,6.0,78,0.00,,,0.00,712,weatherlink.com 1.10,2013-10-11 18:36:00,
2013-10-11 11:51:00,58.7,51.0,30.08,SW,226,0.0,7.0,76,0.00,,,0.00,698,weatherlink.com 1.10,2013-10-11 18:51:00,
2013-10-11 12:06:00,59.9,51.0,30.07,SSE,154,1.0,5.0,72,0.00,,,0.00,703,weatherlink.com 1.10,2013-10-11 19:06:00,
2013-10-11 12:21:00,59.9,51.0,30.07,SSW,213,1.0,5.0,72,0.00,,,0.00,712,weatherlink.com 1.10,2013-10-11 19:21:00,
2013-10-11 12:36:00,60.2,51.0,30.07,South,190,2.0,5.0,72,0.00,,,0.00,722,weatherlink.com 1.10,2013-10-11 19:36:00,
2013-10-11 12:51:00,61.2,50.0,30.07,South,169,1.0,4.0,68,0.00,,,0.00,729,weatherlink.com 1.10,2013-10-11 19:51:00,
2013-10-11 13:06:00,61.5,51.0,30.05,SW,216,0.0,4.0,69,0.00,,,0.00,729,weatherlink.com 1.10,2013-10-11 20:06:00,
2013-10-11 13:21:00,61.3,51.0,30.05,SW,225,3.0,5.0,70,0.00,,,0.00,726,weatherlink.com 1.10,2013-10-11 20:21:00,
2013-10-11 13:36:00,60.9,51.0,30.05,SW,219,1.0,4.0,71,0.00,,,0.00,721,weatherlink.com 1.10,2013-10-11 20:36:00,
2013-10-11 13:51:00,61.2,52.0,30.04,SW,215,2.0,5.0,71,0.00,,,0.00,710,weatherlink.com 1.10,2013-10-11 20:51:00,
2013-10-11 14:06:00,60.3,50.0,30.04,SSW,211,2.0,6.0,70,0.00,,,0.00,693,weatherlink.com 1.10,2013-10-11 21:06:00,
2013-10-11 14:22:00,60.5,51.0,30.03,SE,145,4.0,6.0,71,0.00,,,0.00,677,weatherlink.com 1.10,2013-10-11 21:22:00,
2013-10-11 14:37:00,60.5,51.0,30.03,SSE,151,3.0,6.0,70,0.00,,,0.00,654,weatherlink.com 1.10,2013-10-11 21:37:00,
2013-10-11 14:52:00,60.5,51.0,30.03,SW,231,1.0,7.0,70,0.00,,,0.00,626,weatherlink.com 1.10,2013-10-11 21:52:00,
2013-10-11 15:07:00,60.4,50.0,30.03,SE,139,3.0,9.0,69,0.00,,,0.00,596,weatherlink.com 1.10,2013-10-11 22:07:00,
2013-10-11 15:22:00,59.3,50.0,30.03,SE,144,4.0,7.0,72,0.00,,,0.00,566,weatherlink.com 1.10,2013-10-11 22:22:00,
2013-10-11 15:37:00,58.7,50.0,30.03,SSE,153,4.0,10.0,72,0.00,,,0.00,529,weatherlink.com 1.10,2013-10-11 22:37:00,
2013-10-11 15:52:00,58.8,49.0,30.02,SSE,158,3.0,12.0,71,0.00,,,0.00,494,weatherlink.com 1.10,2013-10-11 22:52:00,
2013-10-11 16:07:00,58.9,49.0,30.02,SE,142,6.0,9.0,71,0.00,,,0.00,450,weatherlink.com 1.10,2013-10-11 23:07:00,
2013-10-11 16:22:00,58.6,50.0,30.01,SE,140,1.0,11.0,73,0.00,,,0.00,401,weatherlink.com 1.10,2013-10-11 23:22:00,
2013-10-11 16:37:00,58.7,50.0,30.00,SE,144,5.0,9.0,73,0.00,,,0.00,359,weatherlink.com 1.10,2013-10-11 23:37:00,
2013-10-11 16:52:00,57.9,50.0,30.00,SE,133,3.0,10.0,74,0.00,,,0.00,309,weatherlink.com 1.10,2013-10-11 23:52:00,
2013-10-11 17:07:00,56.4,50.0,30.00,SE,144,3.0,11.0,78,0.00,,,0.00,262,weatherlink.com 1.10,2013-10-12 00:07:00,
2013-10-11 17:22:00,55.4,50.0,30.00,SSE,149,6.0,11.0,81,0.00,,,0.00,199,weatherlink.com 1.10,2013-10-12 00:22:00,
2013-10-11 17:37:00,54.7,50.0,30.01,ESE,119,8.0,12.0,84,0.00,,,0.00,128,weatherlink.com 1.10,2013-10-12 00:37:00,
2013-10-11 17:52:00,54.4,50.0,29.99,SSE,155,6.0,12.0,85,0.00,,,0.00,58,weatherlink.com 1.10,2013-10-12 00:52:00,
2013-10-11 18:07:00,54.1,50.0,29.99,SE,126,6.0,10.0,85,0.00,,,0.00,28,weatherlink.com 1.10,2013-10-12 01:07:00,
2013-10-11 18:22:00,54.1,50.0,30.00,SE,128,7.0,9.0,85,0.00,,,0.00,16,weatherlink.com 1.10,2013-10-12 01:22:00,
2013-10-11 18:37:00,54.1,50.0,29.99,ESE,121,3.0,10.0,85,0.00,,,0.00,5,weatherlink.com 1.10,2013-10-12 01:37:00,
2013-10-11 18:52:00,53.3,49.0,29.99,ESE,123,7.0,13.0,86,0.00,,,0.00,0,weatherlink.com 1.10,2013-10-12 01:52:00,
2013-10-11 19:07:00,52.8,49.0,29.99,SE,140,7.0,11.0,88,0.00,,,0.00,0,weatherlink.com 1.10,2013-10-12 02:07:00,
2013-10-11 19:22:00,52.6,50.0,29.98,SE,128,3.0,9.0,89,0.00,,,0.00,0,weatherlink.com 1.10,2013-10-12 02:22:00,
2013-10-11 19:37:00,52.5,49.0,29.99,SE,139,6.0,8.0,89,0.00,,,0.00,0,weatherlink.com 1.10,2013-10-12 02:37:00,
2013-10-11 19:52:00,52.5,49.0,29.99,SSE,151,1.0,6.0,89,0.00,,,0.00,0,weatherlink.com 1.10,2013-10-12 02:52:00,
2013-10-11 20:07:00,52.4,49.0,29.99,SSE,155,2.0,3.0,89,0.00,,,0.00,0,weatherlink.com 1.10,2013-10-12 03:07:00,
2013-10-11 20:22:00,52.3,49.0,30.00,SSE,152,2.0,3.0,89,0.00,,,0.00,0,weatherlink.com 1.10,2013-10-12 03:22:00,
2013-10-11 20:37:00,52.4,50.0,30.00,SE,144,1.0,6.0,90,0.00,,,0.00,0,weatherlink.com 1.10,2013-10-12 03:37:00,
2013-10-11 20:52:00,52.0,50.0,30.00,SE,140,4.0,6.0,91,0.00,,,0.00,0,weatherlink.com 1.10,2013-10-12 03:52:00,
2013-10-11 21:07:00,51.6,49.0,30.00,SSE,157,2.0,6.0,91,0.00,,,0.00,0,weatherlink.com 1.10,2013-10-12 04:07:00,
2013-10-11 21:22:00,51.5,49.0,30.00,SE,140,3.0,5.0,92,0.00,,,0.00,0,weatherlink.com 1.10,2013-10-12 04:22:00,
2013-10-11 21:37:00,51.4,49.0,30.00,SE,144,4.0,5.0,92,0.00,,,0.00,0,weatherlink.com 1.10,2013-10-12 04:37:00,
2013-10-11 21:52:00,51.4,49.0,30.00,SE,139,2.0,6.0,92,0.00,,,0.00,0,weatherlink.com 1.10,2013-10-12 04:52:00,
2013-10-11 22:07:00,51.3,49.0,30.01,SE,128,4.0,6.0,92,0.00,,,0.00,0,weatherlink.com 1.10,2013-10-12 05:07:00,
2013-10-11 22:22:00,51.2,49.0,30.00,SSE,147,1.0,6.0,92,0.00,,,0.00,0,weatherlink.com 1.10,2013-10-12 05:22:00,
2013-10-11 22:37:00,51.2,49.0,30.01,SE,136,3.0,7.0,92,0.00,,,0.00,0,weatherlink.com 1.10,2013-10-12 05:37:00,
2013-10-11 22:52:00,51.2,49.0,30.01,SE,136,4.0,6.0,92,0.00,,,0.00,0,weatherlink.com 1.10,2013-10-12 05:52:00,
2013-10-11 23:07:00,51.4,49.0,30.00,SE,145,4.0,6.0,92,0.00,,,0.00,0,weatherlink.com 1.10,2013-10-12 06:07:00,
2013-10-11 23:22:00,51.5,49.0,30.01,SSE,158,2.0,5.0,92,0.00,,,0.00,0,weatherlink.com 1.10,2013-10-12 06:22:00,
2013-10-11 23:37:00,51.3,49.0,30.01,SE,132,4.0,6.0,92,0.00,,,0.00,0,weatherlink.com 1.10,2013-10-12 06:37:00,
2013-10-11 23:52:00,51.2,49.0,30.00,SE,144,5.0,6.0,92,0.00,,,0.00,0,weatherlink.com 1.10,2013-10-12 06:52:00,